Latest Weather Observations for Neptune Island

IDS60801

Issued at 5:31 pm CST Monday 25 September 2017 (issued every 30 minutes, with the page automatically refreshed every 10 minutes)

About weather observations | Map of weather stations | Latest weather observations for SA | Other Formats
Station Details ID: 018115 Name: NEPTUNE ISLAND Lat: -35.34 Lon: 136.12 Height: 32.0 m
Data from the previous 72 hours. | See also: Recent months at Neptune Island
Date/Time
CST
Temp
°C
App
Temp
°C
Dew
Point
°C
Rel
Hum
%
Delta-T
°C
Wind Press
QNH
hPa
Press
MSL
hPa
Rain since
9am
mm
Dir  Spd
km/h
Gust
km/h
Spd
kts
Gust
kts
25/05:30pm 13.7 9.3 9.0 73 2.4 S 22 28 12 15 1013.8 1013.8 0.0
25/05:00pm 14.1 10.2 9.3 73 2.5 S 20 24 11 13 1013.7 1013.7 0.0
25/04:30pm 14.5 10.6 9.5 72 2.6 S 20 26 11 14 1013.5 1013.5 0.0
25/04:00pm 14.8 11.1 9.4 70 2.8 S 19 24 10 13 1013.5 1013.5 0.0
25/03:30pm 15.1 11.5 9.9 71 2.7 S 19 26 10 14 1013.5 1013.5 0.0
25/03:00pm 15.6 13.2 9.9 69 3.0 S 13 19 7 10 1013.7 1013.7 0.0
25/02:30pm 15.0 12.6 8.7 66 3.2 SSW 11 13 6 7 1013.8 1013.8 0.0
25/02:00pm 14.9 12.1 8.6 66 3.2 SSW 13 17 7 9 1014.0 1014.0 0.0
25/01:30pm 15.0 12.2 8.7 66 3.2 SSW 13 17 7 9 1014.1 1014.1 0.0
25/01:00pm 15.2 13.0 9.3 68 3.0 S 11 15 6 8 1014.2 1014.2 0.0
25/12:30pm 14.8 12.5 9.0 68 3.0 SSW 11 13 6 7 1014.3 1014.3 0.0
25/12:00pm 14.3 12.3 8.5 68 2.9 S 9 11 5 6 1014.3 1014.3 0.0
25/11:30am 14.6 12.4 9.2 70 2.8 SSW 11 15 6 8 1014.2 1014.2 0.0
25/11:00am 14.6 12.8 9.4 71 2.7 SSW 9 13 5 7 1014.2 1014.2 0.0
25/10:30am 14.2 12.3 9.2 72 2.6 S 9 15 5 8 1014.3 1014.3 0.0
25/10:00am 14.4 11.8 9.4 72 2.6 SSW 13 17 7 9 1014.0 1014.0 0.0
25/09:30am 14.0 11.5 9.6 75 2.3 S 13 19 7 10 1013.7 1013.7 0.0
25/09:00am 12.9 10.3 9.2 78 1.9 SSW 13 17 7 9 1013.5 1013.5 3.6
25/08:30am 13.1 9.5 9.9 81 1.6 SSW 19 20 10 11 1013.2 1013.2 3.6
25/08:00am 12.5 7.6 9.9 84 1.3 SSW 26 30 14 16 1012.7 1012.7 3.6
25/07:30am 12.7 7.7 9.7 82 1.5 S 26 32 14 17 1011.6 1011.6 3.6
25/07:00am 12.6 7.9 9.4 81 1.6 SSW 24 28 13 15 1011.1 1011.1 3.6
25/06:30am 12.3 8.0 9.5 83 1.4 SW 22 28 12 15 1010.8 1010.8 3.6
25/06:00am 12.0 7.8 9.6 85 1.2 SW 22 28 12 15 1010.6 1010.6 3.4
25/05:30am 12.0 7.4 9.7 86 1.2 SW 24 28 13 15 1010.2 1010.2 3.4
25/05:00am 12.2 7.3 9.8 85 1.2 SW 26 32 14 17 1009.5 1009.5 3.4
25/04:30am 12.2 7.8 10.3 88 1.0 WSW 24 28 13 15 1009.3 1009.3 3.4
25/04:00am 12.6 6.0 10.1 85 1.3 W 35 43 19 23 1008.9 1008.9 3.4
25/03:30am 12.4 5.8 10.1 86 1.2 W 35 43 19 23 1008.9 1008.9 3.4
25/03:00am 12.1 4.7 10.0 87 1.1 W 39 46 21 25 1008.9 1008.9 3.4
25/02:30am 12.4 4.1 10.1 86 1.2 WSW 44 57 24 31 1008.8 1008.8 3.4
25/02:00am 12.7 6.6 10.4 86 1.2 W 33 46 18 25 1008.8 1008.8 3.4
25/01:30am 12.3 4.0 10.0 86 1.2 W 44 57 24 31 1009.0 1009.0 3.4
25/01:17am 12.6 4.5 10.0 84 1.3 W 43 61 23 33 1008.6 1008.6 3.4
25/01:15am 12.7 5.7 10.1 84 1.3 W 37 61 20 33 1008.7 1008.7 3.4
25/01:00am 12.1 2.6 9.8 86 1.2 W 50 59 27 32 1008.8 1008.8 3.4
25/12:30am 12.7 4.4 10.2 85 1.3 W 44 54 24 29 1008.8 1008.8 3.2
25/12:00am 12.7 4.7 10.6 87 1.1 W 43 48 23 26 1008.9 1008.9 3.2
 
Date/Time
CST
Temp
°C
App
Temp
°C
Dew
Point
°C
Rel
Hum
%
Delta-T
°C
Wind Press
QNH
hPa
Press
MSL
hPa
Rain since
9am
mm
Dir  Spd
km/h
Gust
km/h
Spd
kts
Gust
kts
24/11:30pm 11.8 1.8 9.4 85 1.2 W 52 63 28 34 1008.7 1008.7 2.6
24/11:26pm 12.5 4.1 9.5 82 1.5 W 44 63 24 34 1008.7 1008.7 2.4
24/11:00pm 13.0 5.0 10.5 85 1.3 W 43 50 23 27 1008.9 1008.9 2.4
24/10:30pm 12.7 4.6 10.6 87 1.1 W 44 59 24 32 1009.0 1009.0 2.4
24/10:22pm 12.8 5.1 10.2 84 1.3 W 41 59 22 32 1008.7 1008.7 2.4
24/10:00pm 13.0 5.8 10.5 85 1.3 W 39 44 21 24 1009.0 1009.0 2.4
24/09:30pm 12.9 4.0 10.6 86 1.2 W 48 56 26 30 1008.6 1008.6 2.4
24/09:00pm 12.8 4.6 10.5 86 1.2 W 44 56 24 30 1008.4 1008.4 2.4
24/08:30pm 12.3 3.3 10.4 88 1.0 W 48 61 26 33 1008.0 1008.0 2.2
24/08:00pm 12.8 3.5 10.5 86 1.2 W 50 59 27 32 1007.7 1007.7 1.0
24/07:30pm 12.6 2.5 10.3 86 1.2 W 54 65 29 35 1007.2 1007.2 1.0
24/07:00pm 13.1 3.8 10.6 85 1.3 W 50 61 27 33 1006.7 1006.7 1.0
24/06:30pm 12.6 4.8 11.2 91 0.7 WNW 43 56 23 30 1006.7 1006.7 1.0
24/06:00pm 12.2 1.7 10.3 88 1.0 W 56 67 30 36 1005.9 1005.9 0.8
24/05:30pm 12.9 3.7 11.0 88 1.0 WNW 50 61 27 33 1005.5 1005.5 0.8
24/05:00pm 13.0 2.7 11.1 88 1.0 WNW 56 67 30 36 1005.4 1005.4 0.6
24/04:30pm 13.4 3.9 11.1 86 1.2 WNW 52 61 28 33 1005.0 1005.0 0.4
24/04:04pm 13.0 3.2 10.2 83 1.4 WNW 52 72 28 39 1004.7 1004.7 0.0
24/04:00pm 14.1 4.8 10.7 80 1.8 WNW 50 65 27 35 1004.7 1004.7 0.0
24/03:30pm 13.9 4.4 11.2 84 1.4 WNW 52 63 28 34 1004.6 1004.6 0.0
24/03:00pm 13.8 4.3 11.1 84 1.4 WNW 52 65 28 35 1004.2 1004.2 0.0
24/02:38pm 13.3 1.8 10.1 81 1.7 WNW 61 80 33 43 1003.9 1003.9 0.0
24/02:30pm 14.7 4.1 10.1 74 2.4 WNW 56 67 30 36 1003.9 1003.9 0.0
24/02:00pm 15.0 4.6 10.6 75 2.3 WNW 56 70 30 38 1003.9 1003.9 0.0
24/01:30pm 15.2 4.7 10.4 73 2.5 WNW 56 70 30 38 1003.5 1003.5 0.0
24/01:00pm 15.0 3.9 10.2 73 2.5 WNW 59 72 32 39 1003.4 1003.4 0.0
24/12:30pm 14.9 3.3 9.9 72 2.6 WNW 61 74 33 40 1003.1 1003.1 0.0
24/12:00pm 14.9 3.7 9.7 71 2.7 WNW 59 72 32 39 1003.3 1003.3 0.0
24/11:30am 14.8 3.3 10.0 73 2.5 WNW 61 72 33 39 1003.2 1003.2 0.0
24/11:00am 14.5 2.8 9.3 71 2.7 WNW 61 70 33 38 1003.0 1003.0 0.0
24/10:30am 14.5 2.4 9.3 71 2.7 WNW 63 82 34 44 1002.9 1002.9 0.0
24/10:29am 14.5 2.3 9.1 70 2.8 WNW 63 82 34 44 1002.9 1002.9 0.0
24/10:00am 14.4 2.1 8.6 68 2.9 WNW 63 76 34 41 1002.8 1002.8 0.0
24/09:30am 14.3 2.5 9.1 71 2.7 WNW 61 76 33 41 1002.6 1002.6 0.0
24/09:03am 13.9 2.4 8.5 70 2.7 WNW 59 78 32 42 1002.6 1002.6 0.0
24/09:00am 14.1 2.3 8.9 71 2.6 WNW 61 78 33 42 1002.7 1002.7 6.0
24/08:47am 14.2 3.2 9.0 71 2.6 WNW 57 76 31 41 1002.6 1002.6 6.0
24/08:30am 14.0 1.7 8.4 69 2.8 WNW 63 76 34 41 1002.3 1002.3 6.0
24/08:00am 13.9 1.2 8.3 69 2.8 WNW 65 83 35 45 1002.0 1002.0 6.0
24/07:30am 13.7 0.5 8.1 69 2.8 WNW 67 78 36 42 1001.6 1001.6 6.0
24/07:00am 13.4 0.4 7.2 66 3.0 WNW 65 82 35 44 1001.4 1001.4 6.0
24/06:30am 13.5 0.7 7.9 69 2.8 WNW 65 87 35 47 1001.1 1001.1 6.0
24/06:05am 13.6 0.0 8.0 69 2.8 WNW 69 89 37 48 1000.7 1000.7 6.0
24/06:00am 13.6 0.4 8.0 69 2.8 WNW 67 83 36 45 1000.8 1000.8 6.0
24/05:51am 13.6 0.8 8.0 69 2.8 WNW 65 83 35 45 1000.7 1000.7 6.0
24/05:30am 13.7 1.2 9.4 75 2.2 WNW 65 78 35 42 1000.8 1000.8 6.0
24/05:00am 13.6 1.8 9.1 74 2.3 WNW 61 72 33 39 1000.5 1000.5 6.0
24/04:30am 13.5 1.1 9.7 78 2.0 WNW 65 82 35 44 1000.4 1000.4 6.0
24/04:14am 13.2 1.4 9.1 76 2.1 WNW 61 85 33 46 1000.2 1000.2 6.0
24/04:00am 13.7 1.9 9.0 73 2.4 WNW 61 72 33 39 1000.3 1000.3 6.0
24/03:30am 13.7 1.8 8.5 71 2.6 WNW 61 72 33 39 1000.3 1000.3 6.0
24/03:00am 13.8 2.1 9.3 74 2.3 WNW 61 76 33 41 1000.4 1000.4 6.0
24/02:30am 13.7 1.5 9.0 73 2.4 WNW 63 74 34 40 1000.3 1000.3 6.0
24/02:00am 13.8 2.4 9.0 73 2.4 WNW 59 78 32 42 1000.4 1000.4 6.0
24/01:30am 13.7 1.3 9.6 76 2.1 WNW 65 78 35 42 1000.8 1000.8 6.0
24/01:00am 13.7 1.7 9.7 77 2.1 WNW 63 78 34 42 1001.2 1001.2 6.0
24/12:58am 13.7 1.7 9.6 76 2.1 WNW 63 82 34 44 1001.1 1001.1 6.0
24/12:30am 14.0 2.5 10.0 77 2.1 WNW 61 74 33 40 1001.0 1001.0 6.0
24/12:00am 14.0 3.3 10.2 78 2.0 WNW 57 70 31 38 1001.2 1001.2 6.0
 
Date/Time
CST
Temp
°C
App
Temp
°C
Dew
Point
°C
Rel
Hum
%
Delta-T
°C
Wind Press
QNH
hPa
Press
MSL
hPa
Rain since
9am
mm
Dir  Spd
km/h
Gust
km/h
Spd
kts
Gust
kts
23/11:30pm 13.8 3.1 10.2 79 1.9 WNW 57 69 31 37 1001.6 1001.6 6.0
23/11:00pm 13.7 4.4 10.5 81 1.7 WNW 50 61 27 33 1001.6 1001.6 6.0
23/10:30pm 13.5 4.4 11.2 86 1.2 WNW 50 61 27 33 1001.8 1001.8 6.0
23/10:00pm 13.4 4.8 11.8 90 0.9 WNW 48 59 26 32 1002.0 1002.0 6.0
23/09:30pm 12.5 4.1 11.2 92 0.7 WNW 46 56 25 30 1002.2 1002.2 6.0
23/09:00pm 12.1 1.3 11.2 94 0.5 WNW 59 74 32 40 1001.9 1001.9 5.8
23/08:48pm 11.0 0.4 8.6 85 1.2 WNW 54 98 29 53 1001.5 1001.5 4.8
23/08:47pm 12.8 3.2 10.9 88 1.0 WNW 52 80 28 43 1001.6 1001.6 4.0
23/08:30pm 13.3 5.4 11.5 89 1.0 WNW 44 57 24 31 1001.7 1001.7 3.0
23/08:00pm 11.9 1.5 10.5 91 0.7 WNW 56 69 30 37 1001.9 1001.9 2.6
23/07:44pm 14.3 4.1 10.1 76 2.2 NW 54 74 29 40 1001.6 1001.6 0.0
23/07:30pm 15.3 6.4 11.9 80 1.9 NW 50 59 27 32 1001.3 1001.3 0.0
23/07:00pm 15.3 5.9 11.5 78 2.0 NW 52 61 28 33 1001.0 1001.0 0.0
23/06:30pm 15.3 5.8 11.3 77 2.2 NW 52 61 28 33 1000.8 1000.8 0.0
23/06:00pm 15.3 4.3 10.5 73 2.5 NW 59 70 32 38 1000.5 1000.5 0.0
23/05:35pm 15.7 5.4 11.1 74 2.5 NW 56 74 30 40 1000.4 1000.4 0.0
23/05:30pm 15.6 5.0 10.8 73 2.6 NW 57 74 31 40 1000.3 1000.3 0.0
23/05:01pm 15.8 4.7 11.4 75 2.4 NW 61 80 33 43 1000.2 1000.2 0.0
23/05:00pm 15.9 4.4 11.5 75 2.4 NW 63 80 34 43 1000.1 1000.1 0.0
23/04:30pm 16.1 5.4 11.7 75 2.4 NW 59 69 32 37 999.7 999.7 0.0
23/04:00pm 16.2 6.6 12.0 76 2.3 NW 54 67 29 36 999.4 999.4 0.0
23/03:30pm 16.2 7.4 12.2 77 2.2 NW 50 61 27 33 999.3 999.3 0.0
23/03:03pm 16.3 6.5 11.5 73 2.6 NW 54 72 29 39 999.0 999.0 0.0
23/03:00pm 16.5 6.8 11.9 74 2.5 WNW 54 65 29 35 999.1 999.1 0.0
23/02:30pm 16.2 5.9 11.2 72 2.7 WNW 56 67 30 36 998.9 998.9 0.0
23/02:14pm 16.3 6.9 11.5 73 2.6 WNW 52 70 28 38 998.9 998.9 0.0
23/02:00pm 16.2 6.2 12.0 76 2.3 WNW 56 69 30 37 998.8 998.8 0.0
23/01:30pm 16.1 5.4 11.5 74 2.5 WNW 59 70 32 38 998.6 998.6 0.0
23/01:19pm 16.1 6.1 11.9 76 2.3 WNW 56 74 30 40 998.6 998.6 0.0
23/01:00pm 16.3 5.9 11.5 73 2.6 WNW 57 69 31 37 998.3 998.3 0.0
23/12:30pm 16.2 5.1 11.4 73 2.6 WNW 61 72 33 39 998.1 998.1 0.0
23/12:00pm 16.2 4.4 11.6 74 2.5 WNW 65 76 35 41 997.7 997.7 0.0
23/11:30am 16.6 4.6 12.2 75 2.4 NW 67 78 36 42 997.2 997.2 0.0
23/11:00am 16.9 6.2 12.8 77 2.3 WNW 61 72 33 39 996.9 996.9 0.0
23/10:49am 16.6 7.5 12.4 76 2.3 WNW 52 76 28 41 996.7 996.7 0.0
23/10:30am 16.9 7.1 13.2 79 2.1 WNW 57 69 31 37 996.8 996.8 0.0
23/10:00am 16.9 7.5 12.8 77 2.3 NW 54 72 29 39 996.5 996.5 0.0
23/09:58am 16.9 7.6 13.0 78 2.2 NW 54 69 29 37 996.5 996.5 0.0
23/09:30am 16.8 10.6 13.7 82 1.8 NW 39 46 21 25 996.8 996.8 0.0
23/09:00am 16.4 10.2 13.7 84 1.5 NW 39 48 21 26 996.5 996.5 1.0
23/08:30am 15.9 12.1 13.6 86 1.3 NNW 26 33 14 18 996.0 996.0 1.0
23/08:00am 15.3 12.5 13.3 88 1.1 N 20 22 11 12 995.8 995.8 1.0
23/07:30am 15.0 11.1 13.4 90 0.9 NNW 26 35 14 19 995.8 995.8 1.0
23/07:00am 15.1 11.2 13.3 89 1.0 N 26 35 14 19 996.2 996.2 1.0
23/06:30am 14.8 12.2 13.3 91 0.8 N 19 30 10 16 995.8 995.8 1.0
23/06:00am 14.7 12.0 13.4 92 0.7 NNE 20 26 11 14 995.3 995.3 0.2
23/05:30am 14.7 12.5 13.4 92 0.7 NE 17 20 9 11 995.1 995.1 0.2
23/05:00am 14.6 12.9 13.5 93 0.6 NE 15 17 8 9 995.5 995.5 0.2
23/04:30am 14.6 12.5 13.5 93 0.6 ENE 17 19 9 10 995.5 995.5 0.2
23/04:00am 14.5 13.1 13.4 93 0.6 E 13 15 7 8 996.3 996.3 0.2
23/03:30am 14.3 13.2 13.2 93 0.6 SE 11 15 6 8 996.9 996.9 0.2
23/03:00am 14.4 13.0 13.4 94 0.6 SSE 13 17 7 9 996.6 996.6 0.2
23/02:30am 14.7 14.2 13.9 95 0.5 S 9 15 5 8 997.6 997.6 0.2
23/02:00am 14.9 13.7 14.1 95 0.5 S 13 17 7 9 999.3 999.3 0.2
23/01:30am 14.7 13.5 13.9 95 0.5 SE 13 17 7 9 998.4 998.4 0.2
23/01:00am 14.8 14.3 13.8 94 0.6 SSW 9 15 5 8 999.9 999.9 0.2
23/12:30am 15.1 14.0 14.3 95 0.5 SSW 13 20 7 11 1000.4 1000.4 0.2
23/12:00am 15.2 13.3 14.2 94 0.6 SW 17 28 9 15 1000.5 1000.5 0.2
 
Date/Time
CST
Temp
°C
App
Temp
°C
Dew
Point
°C
Rel
Hum
%
Delta-T
°C
Wind Press
QNH
hPa
Press
MSL
hPa
Rain since
9am
mm
Dir  Spd
km/h
Gust
km/h
Spd
kts
Gust
kts
22/11:55pm 15.3 13.8 14.3 94 0.6 S 15 28 8 15 1001.6 1001.6 0.2
22/11:38pm 15.1 12.6 14.1 94 0.6 SW 20 32 11 17 999.6 999.6 0.0
22/11:30pm 15.2 11.6 14.2 94 0.6 WSW 26 39 14 21 1001.8 1001.8 0.0
22/11:26pm 15.3 13.1 14.3 94 0.6 S 19 39 10 21 1002.1 1002.1 0.0
22/11:23pm 15.2 14.1 14.4 95 0.5 ESE 13 20 7 11 1000.6 1000.6 0.0
22/11:00pm 15.0 13.0 14.0 94 0.6 E 17 20 9 11 998.3 998.3 0.0
22/10:30pm 14.9 12.5 13.9 94 0.6 E 19 24 10 13 998.8 998.8 0.0
22/10:22pm 15.0 12.6 13.9 93 0.6 ENE 19 20 10 11 999.6 999.6 0.0
22/10:00pm 14.8 14.6 13.5 92 0.7 NW 7 9 4 5 1001.7 1001.7 0.0
22/09:30pm 15.3 14.5 14.0 92 0.7 W 11 13 6 7 1002.7 1002.7 0.0
22/09:00pm 15.5 14.3 14.0 91 0.9 W 13 17 7 9 1003.1 1003.1 0.0
22/08:30pm 15.5 13.0 14.0 91 0.9 W 20 24 11 13 1002.5 1002.5 0.0
22/08:00pm 15.7 12.1 14.1 90 0.9 W 26 28 14 15 1002.3 1002.3 0.0
22/07:30pm 15.7 14.5 13.9 89 1.0 WNW 13 17 7 9 1001.7 1001.7 0.0
22/07:00pm 15.8 13.8 13.8 88 1.1 WNW 17 20 9 11 1001.3 1001.3 0.0
22/06:30pm 16.0 13.4 13.7 86 1.3 WNW 20 24 11 13 1000.9 1000.9 0.0
22/06:00pm 16.4 13.8 13.7 84 1.5 WNW 20 24 11 13 1001.0 1001.0 0.0

Other Formats:

Comma delimited format used in spreadsheet applications
http://www.bom.gov.au/fwo/IDS60801/IDS60801.94804.axf

JavaScript Object Notation format (JSON) in row-major order
http://www.bom.gov.au/fwo/IDS60801/IDS60801.94804.json